Time;durP1;ratioP1;P1;durP2;ratioP2;P2;SDS_P1;SDS_P2;PMS_P1;PMS_P2;Temp;Humidity;BMP_temperature;BMP_pressure;BME280_temperature;BME280_humidity;BME280_pressure;Samples;Min_cycle;Max_cycle;Signal;HPM_P1;HPM_P2
2022/09/27 00:01:08;;;;;;;7.55;6.85;;;15.90;99.90;;;;;;5113271;28;20019;-80
2022/09/27 00:03:34;;;;;;;6.85;6.35;;;15.90;99.90;;;;;;5113169;28;20033;-80
2022/09/27 00:06:10;;;;;;;7.13;6.53;;;15.90;99.90;;;;;;5113297;28;20016;-81
2022/09/27 00:08:36;;;;;;;7.43;6.38;;;15.90;99.90;;;;;;5094709;28;20058;-80
2022/09/27 00:11:12;;;;;;;7.70;6.57;;;15.90;99.90;;;;;;5094781;28;20051;-81
2022/09/27 00:13:38;;;;;;;7.57;6.15;;;15.90;99.90;;;;;;5112991;28;20065;-80
2022/09/27 00:16:04;;;;;;;6.65;6.03;;;15.90;99.90;;;;;;5113008;28;20390;-80
2022/09/27 00:18:30;;;;;;;6.97;6.38;;;16.00;99.90;;;;;;5112918;28;20015;-80
2022/09/27 00:21:03;;;;;;;6.75;6.03;;;16.00;99.90;;;;;;5112901;28;20020;-81
2022/09/27 00:23:29;;;;;;;7.80;7.00;;;15.90;99.90;;;;;;5094491;28;20028;-80
2022/09/27 00:25:57;;;;;;;7.28;6.55;;;16.00;99.90;;;;;;5112849;28;20072;-80
2022/09/27 00:28:23;;;;;;;6.60;6.00;;;16.00;99.90;;;;;;5112780;28;20110;-80
2022/09/27 00:30:49;;;;;;;7.97;7.15;;;16.00;99.90;;;;;;5112551;28;20079;-81
2022/09/27 00:33:14;;;;;;;9.45;6.18;;;16.10;99.90;;;;;;5112713;28;20118;-81
2022/09/27 00:35:40;;;;;;;6.47;5.88;;;16.10;99.90;;;;;;5094358;28;20023;-81
2022/09/27 00:38:06;;;;;;;7.38;6.15;;;16.10;99.90;;;;;;5112081;28;20031;-79
2022/09/27 00:40:32;;;;;;;6.35;5.75;;;16.10;99.90;;;;;;5112271;28;20059;-79
2022/09/27 00:42:58;;;;;;;7.07;5.00;;;16.10;99.90;;;;;;5112405;28;20020;-78
2022/09/27 00:45:24;;;;;;;5.80;5.20;;;16.20;99.90;;;;;;5094251;28;20513;-78
2022/09/27 00:47:58;;;;;;;6.47;5.88;;;16.20;99.90;;;;;;5112661;28;20035;-78
2022/09/27 00:50:41;;;;;;;6.57;5.97;;;16.20;99.90;;;;;;5112362;28;20494;-78
2022/09/27 00:53:18;;;;;;;6.32;5.72;;;16.20;99.90;;;;;;5112272;28;20016;-79
2022/09/27 00:55:53;;;;;;;5.95;5.45;;;16.30;99.90;;;;;;5112372;28;20030;-78
2022/09/27 00:58:25;;;;;;;6.65;6.15;;;16.20;99.90;;;;;;5112226;28;20539;-79
2022/09/27 01:00:56;;;;;;;7.28;6.35;;;16.20;99.90;;;;;;5093966;28;20393;-79
2022/09/27 01:03:45;;;;;;;6.95;6.25;;;16.20;99.90;;;;;;5112225;28;20111;-79
2022/09/27 01:06:12;;;;;;;5.95;5.30;;;16.20;99.90;;;;;;5101063;28;20034;-79
2022/09/27 01:08:38;;;;;;;7.50;6.65;;;16.10;99.90;;;;;;5093887;28;20027;-79
2022/09/27 01:11:25;;;;;;;7.03;6.32;;;16.20;99.90;;;;;;5093685;28;20027;-80
2022/09/27 01:13:56;;;;;;;6.68;6.00;;;16.10;99.90;;;;;;5112008;28;20020;-79
2022/09/27 01:16:46;;;;;;;8.57;7.15;;;16.10;99.90;;;;;;5112055;28;20027;-80
2022/09/27 01:19:30;;;;;;;8.85;7.72;;;16.00;99.90;;;;;;5112084;28;20496;-80
2022/09/27 01:22:24;;;;;;;8.13;6.97;;;15.90;99.90;;;;;;5111835;28;20081;-80
2022/09/27 01:25:11;;;;;;;7.55;6.85;;;15.80;99.90;;;;;;5021481;28;20034;-80
2022/09/27 01:27:49;;;;;;;7.18;6.50;;;15.80;99.90;;;;;;5111911;28;20133;-80
2022/09/27 01:30:28;;;;;;;10.20;7.97;;;15.90;99.90;;;;;;5111788;28;20048;-80
2022/09/27 01:33:05;;;;;;;8.50;7.13;;;15.90;99.90;;;;;;5111796;28;20043;-80
2022/09/27 01:35:46;;;;;;;8.23;7.43;;;15.90;99.90;;;;;;5093429;28;20088;-80
2022/09/27 01:38:31;;;;;;;7.75;6.95;;;15.90;99.90;;;;;;5111706;28;20034;-79
2022/09/27 01:41:05;;;;;;;7.57;6.88;;;15.90;99.90;;;;;;5111584;28;20051;-80
2022/09/27 01:44:05;;;;;;;9.40;7.70;;;15.90;99.90;;;;;;5111657;28;20081;-80
2022/09/27 01:46:38;;;;;;;8.02;7.20;;;15.90;99.90;;;;;;5111635;28;20051;-80
2022/09/27 01:49:11;;;;;;;8.77;7.20;;;15.90;99.90;;;;;;5093167;28;20390;-80
2022/09/27 01:51:57;;;;;;;7.35;6.60;;;15.90;99.90;;;;;;5114083;28;20454;-81
2022/09/27 01:54:38;;;;;;;6.97;6.38;;;15.90;99.90;;;;;;5097525;28;20023;-80
2022/09/27 01:57:10;;;;;;;7.15;6.30;;;15.90;99.90;;;;;;5115719;28;20077;-80
2022/09/27 02:00:07;;;;;;;6.22;5.72;;;15.90;99.90;;;;;;5115695;28;20083;-80
2022/09/27 02:02:40;;;;;;;6.47;5.95;;;15.90;99.90;;;;;;5095394;28;20035;-80
2022/09/27 02:05:08;;;;;;;6.47;5.95;;;15.90;99.90;;;;;;5115566;28;20418;-80
2022/09/27 02:07:46;;;;;;;6.28;5.78;;;16.00;99.90;;;;;;5115616;28;20023;-80
2022/09/27 02:10:17;;;;;;;4.82;4.53;;;16.00;99.90;;;;;;5115375;28;20027;-80
2022/09/27 02:13:09;;;;;;;5.47;5.07;;;16.00;99.90;;;;;;5097057;28;20467;-80
2022/09/27 02:16:29;;;;;;;6.03;5.53;;;16.00;99.90;;;;;;5110627;28;20514;-80
2022/09/27 02:19:42;;;;;;;6.30;5.38;;;16.00;99.90;;;;;;5074628;28;20032;-81
2022/09/27 02:22:27;;;;;;;7.10;6.40;;;16.00;99.90;;;;;;5021155;28;20395;-80
2022/09/27 02:25:05;;;;;;;6.30;5.80;;;16.00;99.90;;;;;;5115222;28;20032;-81
2022/09/27 02:27:39;;;;;;;6.47;5.85;;;16.00;99.90;;;;;;5115168;28;20110;-80
2022/09/27 02:30:12;;;;;;;6.63;6.00;;;16.00;99.90;;;;;;5096603;28;20383;-80
2022/09/27 02:32:39;;;;;;;6.38;5.88;;;16.00;99.90;;;;;;5096901;28;20030;-80
2022/09/27 02:35:08;;;;;;;7.15;6.55;;;16.00;99.90;;;;;;5115067;28;20043;-80
2022/09/27 02:37:34;;;;;;;6.82;6.18;;;15.90;99.90;;;;;;5096803;28;20128;-80
2022/09/27 02:40:00;;;;;;;6.85;6.25;;;15.90;99.90;;;;;;5114779;28;20514;-80
2022/09/27 02:42:27;;;;;;;6.45;5.95;;;15.90;99.90;;;;;;5096610;28;20114;-80
2022/09/27 02:44:53;;;;;;;7.40;6.70;;;15.90;99.90;;;;;;5096464;28;20019;-80
2022/09/27 02:47:24;;;;;;;6.88;6.18;;;15.90;99.90;;;;;;5114684;28;20035;-80
2022/09/27 02:50:08;;;;;;;6.57;6.07;;;15.90;99.90;;;;;;5096376;28;20035;-80
2022/09/27 02:52:56;;;;;;;6.13;5.65;;;15.90;99.90;;;;;;5114726;28;20079;-80
2022/09/27 02:56:02;;;;;;;6.63;5.90;;;16.00;99.90;;;;;;5114633;28;20050;-80
2022/09/27 02:58:49;;;;;;;6.78;6.15;;;16.00;99.90;;;;;;5114671;28;20030;-80
2022/09/27 03:01:36;;;;;;;7.10;6.38;;;16.00;99.90;;;;;;5114013;28;20518;-80
2022/09/27 03:04:14;;;;;;;7.15;6.10;;;16.00;99.90;;;;;;5096157;28;20031;-80
2022/09/27 03:06:43;;;;;;;10.15;6.03;;;16.00;99.90;;;;;;5114405;28;20008;-80
2022/09/27 03:09:24;;;;;;;7.68;6.30;;;16.00;99.90;;;;;;5114298;28;20541;-80
2022/09/27 03:11:50;;;;;;;7.35;6.60;;;16.00;99.90;;;;;;5095917;28;20031;-80
2022/09/27 03:14:16;;;;;;;6.40;5.80;;;16.00;99.90;;;;;;5114290;28;20019;-80
2022/09/27 03:16:42;;;;;;;6.40;5.90;;;16.00;99.90;;;;;;5114222;28;20068;-80
2022/09/27 03:19:08;;;;;;;5.43;5.03;;;16.00;99.90;;;;;;5114105;28;20031;-80
2022/09/27 03:21:34;;;;;;;5.70;5.05;;;15.90;99.90;;;;;;5114041;28;20024;-80
2022/09/27 03:24:01;;;;;;;5.45;5.05;;;15.90;99.90;;;;;;5114089;28;20023;-80
2022/09/27 03:26:27;;;;;;;6.60;5.30;;;16.00;99.90;;;;;;5095749;28;20092;-80
2022/09/27 03:28:52;;;;;;;5.95;5.45;;;16.00;99.90;;;;;;5113931;28;20031;-80
2022/09/27 03:31:18;;;;;;;5.57;5.18;;;16.00;99.90;;;;;;5113792;28;20020;-80
2022/09/27 03:33:44;;;;;;;6.68;5.38;;;16.00;99.90;;;;;;5113810;28;20028;-80
2022/09/27 03:36:10;;;;;;;6.40;5.75;;;16.00;99.90;;;;;;5095466;28;20054;-80
2022/09/27 03:38:36;;;;;;;9.45;7.00;;;15.90;99.90;;;;;;5095461;28;20027;-80
2022/09/27 03:41:02;;;;;;;9.82;6.07;;;15.90;99.90;;;;;;5113534;28;20048;-80
2022/09/27 03:43:31;;;;;;;7.32;6.28;;;16.00;99.90;;;;;;5113638;28;20019;-80
2022/09/27 03:45:57;;;;;;;8.30;7.47;;;15.90;99.90;;;;;;5113733;28;20027;-80
2022/09/27 03:48:24;;;;;;;8.73;7.75;;;15.90;99.90;;;;;;5095203;28;20110;-80
2022/09/27 03:50:50;;;;;;;8.73;7.85;;;15.90;99.90;;;;;;5113383;28;20020;-80
2022/09/27 03:53:16;;;;;;;8.65;7.78;;;15.90;99.90;;;;;;5113596;28;20019;-80
2022/09/27 03:55:45;;;;;;;9.45;8.23;;;15.90;99.90;;;;;;5113353;28;20023;-80
2022/09/27 03:58:10;;;;;;;8.93;8.13;;;15.90;99.90;;;;;;5113408;28;20028;-80
2022/09/27 04:00:36;;;;;;;8.63;7.72;;;15.90;99.90;;;;;;5113227;28;20027;-80
2022/09/27 04:03:02;;;;;;;10.55;8.35;;;15.90;99.90;;;;;;5113134;28;20034;-80
2022/09/27 04:05:28;;;;;;;9.15;8.27;;;16.00;99.90;;;;;;5113374;28;20043;-80
2022/09/27 04:07:53;;;;;;;8.98;8.15;;;15.90;99.90;;;;;;5113193;28;20107;-80
2022/09/27 04:10:20;;;;;;;9.80;8.90;;;15.90;99.90;;;;;;5113132;28;20111;-80
2022/09/27 04:12:46;;;;;;;10.43;8.98;;;15.90;99.90;;;;;;5094635;28;20107;-81
2022/09/27 04:15:12;;;;;;;10.27;9.27;;;15.90;99.90;;;;;;5112459;28;20111;-80
2022/09/27 04:17:41;;;;;;;10.85;9.75;;;15.90;99.90;;;;;;5094640;28;20098;-80
2022/09/27 04:20:08;;;;;;;10.93;9.82;;;15.90;99.90;;;;;;5112853;28;20030;-81
2022/09/27 04:22:34;;;;;;;12.48;10.55;;;15.90;99.90;;;;;;5113024;28;20032;-81
2022/09/27 04:24:59;;;;;;;12.20;10.82;;;15.90;99.90;;;;;;5113011;28;20061;-81
2022/09/27 04:27:25;;;;;;;11.55;10.35;;;15.90;99.90;;;;;;5112960;28;20023;-80
2022/09/27 04:29:51;;;;;;;11.00;9.90;;;15.90;99.90;;;;;;5094336;28;20028;-81
2022/09/27 04:32:17;;;;;;;11.82;10.65;;;15.80;99.90;;;;;;5112590;28;20055;-81
2022/09/27 04:37:27;;;;;;;13.00;10.63;;;15.90;99.90;;;;;;5096904;28;20116;-80
2022/09/27 04:39:52;;;;;;;11.70;10.45;;;15.90;99.90;;;;;;5110350;28;20509;-80
2022/09/27 04:42:18;;;;;;;16.33;10.90;;;15.90;99.90;;;;;;5111217;28;20069;-80
2022/09/27 04:44:44;;;;;;;13.73;10.90;;;15.90;99.90;;;;;;5111173;28;20015;-79
2022/09/27 04:47:10;;;;;;;11.38;10.30;;;15.90;99.90;;;;;;5092839;28;20024;-80
2022/09/27 04:49:37;;;;;;;11.10;10.00;;;15.90;99.90;;;;;;5111356;28;21010;-80
2022/09/27 04:52:04;;;;;;;12.13;10.82;;;15.90;99.90;;;;;;5112400;28;20474;-80
2022/09/27 04:54:30;;;;;;;13.52;11.05;;;15.90;99.90;;;;;;5112305;28;20155;-80
2022/09/27 04:56:56;;;;;;;12.63;11.30;;;15.90;99.90;;;;;;5094187;28;20016;-81
2022/09/27 04:59:22;;;;;;;11.45;10.25;;;15.90;99.90;;;;;;5112184;28;20027;-80
2022/09/27 05:01:49;;;;;;;13.80;10.98;;;15.90;99.90;;;;;;5112230;28;20032;-80
2022/09/27 05:04:15;;;;;;;12.57;11.27;;;15.90;99.90;;;;;;5112304;28;20051;-80
2022/09/27 05:06:41;;;;;;;14.23;10.65;;;15.90;99.90;;;;;;5112263;28;20030;-80
2022/09/27 05:09:06;;;;;;;11.05;9.95;;;15.90;99.90;;;;;;5112196;28;20024;-80
2022/09/27 05:11:32;;;;;;;10.02;9.02;;;15.90;99.90;;;;;;5110844;28;20031;-80
2022/09/27 05:13:58;;;;;;;8.90;7.53;;;15.80;99.90;;;;;;5111528;28;20020;-81
2022/09/27 05:16:23;;;;;;;7.60;6.90;;;15.80;99.90;;;;;;5111918;28;20019;-81
2022/09/27 05:18:49;;;;;;;9.77;7.47;;;15.80;99.90;;;;;;5111926;28;20023;-80
2022/09/27 05:21:16;;;;;;;11.18;7.32;;;15.80;99.90;;;;;;5093591;28;20206;-81
2022/09/27 05:23:41;;;;;;;10.20;7.03;;;15.80;99.90;;;;;;5111885;28;20497;-80
2022/09/27 05:26:07;;;;;;;7.30;6.60;;;15.90;99.90;;;;;;5093493;28;20024;-81
2022/09/27 05:28:36;;;;;;;8.40;6.88;;;15.90;99.90;;;;;;5111733;28;20023;-81
2022/09/27 05:31:02;;;;;;;9.68;7.68;;;15.90;99.90;;;;;;5091429;28;20108;-81
2022/09/27 05:33:33;;;;;;;10.25;8.80;;;15.90;99.90;;;;;;5109973;28;20151;-81
2022/09/27 05:36:01;;;;;;;9.40;8.50;;;15.90;99.90;;;;;;5109835;28;20478;-81
2022/09/27 05:38:27;;;;;;;12.65;9.73;;;15.90;99.90;;;;;;5109748;28;20610;-81
2022/09/27 05:40:53;;;;;;;10.63;9.32;;;15.90;99.90;;;;;;5109576;28;20166;-81
2022/09/27 05:43:20;;;;;;;11.98;9.70;;;15.90;99.90;;;;;;5109824;28;20106;-81
2022/09/27 05:45:46;;;;;;;11.32;9.10;;;15.90;99.90;;;;;;5093130;28;20031;-81
2022/09/27 05:48:13;;;;;;;10.50;9.50;;;15.90;99.90;;;;;;5093433;28;20390;-81
2022/09/27 05:50:39;;;;;;;9.52;8.63;;;15.90;99.90;;;;;;5111419;28;20118;-81
2022/09/27 05:53:05;;;;;;;10.65;9.30;;;15.90;99.90;;;;;;5111573;28;20514;-80
2022/09/27 05:55:31;;;;;;;10.85;9.65;;;15.90;99.90;;;;;;5111579;28;20395;-81
2022/09/27 05:58:03;;;;;;;12.00;10.35;;;15.90;99.90;;;;;;5111587;28;20065;-81
2022/09/27 06:00:30;;;;;;;11.82;10.65;;;15.90;99.90;;;;;;5111458;28;20103;-81
2022/09/27 06:03:01;;;;;;;13.00;10.68;;;16.00;99.90;;;;;;5093293;28;20417;-81
2022/09/27 06:05:29;;;;;;;11.27;10.13;;;16.00;99.90;;;;;;5111450;28;20072;-81
2022/09/27 06:08:00;;;;;;;12.45;10.63;;;16.00;99.90;;;;;;5111424;28;20039;-81
2022/09/27 06:10:26;;;;;;;6.93;6.25;;;16.00;99.90;;;;;;5111337;28;20070;-80
2022/09/27 06:12:52;;;;;;;7.53;3.65;;;15.90;99.90;;;;;;5111506;28;20390;-79
2022/09/27 06:15:17;;;;;;;3.75;1.85;;;15.80;99.90;;;;;;5111413;28;20024;-78
2022/09/27 06:17:43;;;;;;;1.80;0.80;;;15.40;99.90;;;;;;5111392;28;20475;-78
2022/09/27 06:20:09;;;;;;;2.63;0.88;;;15.20;99.90;;;;;;5111378;28;20103;-78
2022/09/27 06:22:35;;;;;;;1.02;0.90;;;15.20;99.90;;;;;;5111167;28;20027;-78
2022/09/27 06:25:02;;;;;;;1.58;0.98;;;15.20;99.90;;;;;;5111393;28;20028;-78
2022/09/27 06:27:29;;;;;;;1.00;0.77;;;15.20;99.90;;;;;;5111377;28;20026;-78
2022/09/27 06:29:55;;;;;;;1.58;1.00;;;15.10;99.90;;;;;;5092827;28;20028;-79
2022/09/27 06:32:21;;;;;;;1.45;1.00;;;15.10;99.90;;;;;;5111227;28;20026;-79
2022/09/27 06:34:47;;;;;;;0.70;0.68;;;15.00;99.90;;;;;;5111316;28;20027;-79
2022/09/27 06:37:14;;;;;;;3.17;0.70;;;14.90;99.90;;;;;;5112892;28;20474;-77
2022/09/27 06:39:40;;;;;;;1.65;0.73;;;14.90;99.90;;;;;;5116121;28;20104;-79
2022/09/27 06:42:06;;;;;;;1.10;0.75;;;14.80;99.90;;;;;;5097894;28;20478;-80
2022/09/27 06:44:32;;;;;;;1.92;0.90;;;14.80;99.90;;;;;;5116324;28;20049;-80
2022/09/27 06:46:57;;;;;;;0.80;0.80;;;14.80;99.90;;;;;;5116373;28;20028;-80
2022/09/27 06:49:24;;;;;;;0.93;0.77;;;14.80;99.90;;;;;;5097895;28;20035;-79
2022/09/27 06:51:51;;;;;;;1.20;0.85;;;14.80;99.90;;;;;;5116150;28;20019;-79
2022/09/27 06:54:17;;;;;;;3.20;1.17;;;14.80;99.90;;;;;;5115335;28;20015;-80
2022/09/27 06:56:46;;;;;;;2.53;1.40;;;14.80;99.90;;;;;;5096061;28;20118;-80
2022/09/27 07:01:55;;;;;;;1.40;1.30;;;14.80;99.90;;;;;;5116188;28;20108;-80
2022/09/27 07:04:21;;;;;;;3.03;1.85;;;14.80;99.90;;;;;;5115103;28;20478;-79
2022/09/27 07:06:47;;;;;;;6.90;2.80;;;14.80;99.90;;;;;;5115156;28;21119;-80
2022/09/27 07:09:13;;;;;;;20.67;7.68;;;14.90;99.90;;;;;;5114992;28;20073;-80
2022/09/27 07:11:40;;;;;;;19.25;7.72;;;14.90;99.90;;;;;;5114657;28;20033;-80
2022/09/27 07:14:07;;;;;;;6.10;3.47;;;14.90;99.90;;;;;;5114246;28;20016;-80
2022/09/27 07:16:33;;;;;;;4.90;3.67;;;15.00;99.90;;;;;;5114562;28;20020;-80
2022/09/27 07:18:59;;;;;;;4.18;3.20;;;14.90;99.90;;;;;;5113735;28;20012;-80
2022/09/27 07:21:26;;;;;;;2.88;2.67;;;14.90;99.90;;;;;;5095548;28;20030;-80
2022/09/27 07:23:52;;;;;;;4.55;1.90;;;15.00;99.90;;;;;;5096154;28;20092;-80
2022/09/27 07:26:18;;;;;;;2.42;1.88;;;15.00;99.90;;;;;;5096298;28;20027;-80
2022/09/27 07:28:44;;;;;;;44.88;28.85;;;15.00;99.90;;;;;;5114389;28;20135;-80
2022/09/27 07:31:11;;;;;;;27.75;18.58;;;15.10;99.90;;;;;;5095942;28;20440;-80
2022/09/27 07:33:38;;;;;;;8.30;5.68;;;15.20;99.90;;;;;;5095941;28;20463;-80
2022/09/27 07:36:09;;;;;;;3.75;3.08;;;15.20;99.90;;;;;;5114319;28;20390;-80
2022/09/27 07:38:35;;;;;;;4.20;3.65;;;15.30;99.90;;;;;;5111831;28;20020;-80
2022/09/27 07:41:14;;;;;;;6.30;4.78;;;15.30;99.90;;;;;;5113853;28;20138;-80
2022/09/27 07:43:42;;;;;;;4.75;4.05;;;15.40;99.90;;;;;;5092268;28;20224;-80
2022/09/27 07:46:12;;;;;;;2.28;2.08;;;15.50;99.90;;;;;;5109155;28;20027;-80
2022/09/27 07:48:38;;;;;;;2.00;1.90;;;15.60;99.90;;;;;;5094253;28;20034;-80
2022/09/27 07:51:06;;;;;;;1.92;1.65;;;15.60;99.90;;;;;;5112043;28;20028;-80
2022/09/27 07:53:32;;;;;;;1.73;1.50;;;15.80;99.90;;;;;;5111857;28;20028;-80
2022/09/27 07:55:58;;;;;;;3.47;1.40;;;15.80;99.90;;;;;;5111431;28;20106;-80
2022/09/27 07:58:24;;;;;;;1.13;1.13;;;15.90;99.90;;;;;;5095193;28;20427;-80
2022/09/27 08:00:50;;;;;;;1.30;1.20;;;16.00;99.90;;;;;;5111966;28;20424;-80
2022/09/27 08:03:17;;;;;;;1.42;1.27;;;16.10;99.90;;;;;;5111371;28;20111;-80
2022/09/27 08:05:45;;;;;;;1.27;1.27;;;16.10;99.90;;;;;;5114706;28;20031;-80
2022/09/27 08:08:10;;;;;;;1.00;1.00;;;16.20;99.90;;;;;;5089570;28;20031;-76
2022/09/27 08:10:38;;;;;;;1.20;1.13;;;16.20;99.90;;;;;;5113695;28;20027;-76
2022/09/27 08:13:04;;;;;;;1.17;1.13;;;16.30;99.90;;;;;;5096349;28;20044;-76
2022/09/27 08:15:31;;;;;;;1.20;1.10;;;16.40;99.90;;;;;;5110369;28;20478;-76
2022/09/27 08:17:57;;;;;;;1.27;1.17;;;16.50;99.90;;;;;;5093726;28;20103;-76
2022/09/27 08:20:23;;;;;;;1.38;1.30;;;16.50;99.90;;;;;;5093740;28;20028;-76
2022/09/27 08:22:49;;;;;;;1.80;1.70;;;16.60;99.90;;;;;;5094011;28;20070;-75
2022/09/27 08:25:14;;;;;;;1.83;1.73;;;16.60;99.90;;;;;;5093819;28;20023;-75
2022/09/27 08:27:41;;;;;;;1.70;1.60;;;16.70;99.90;;;;;;5093484;28;20032;-76
2022/09/27 08:30:07;;;;;;;1.90;1.63;;;16.70;99.90;;;;;;5107113;28;20036;-75
2022/09/27 08:32:33;;;;;;;1.92;1.83;;;16.60;99.90;;;;;;5095434;28;20468;-76
2022/09/27 08:34:59;;;;;;;2.28;2.10;;;16.60;99.90;;;;;;5095735;28;20035;-76
2022/09/27 08:37:25;;;;;;;2.17;1.85;;;16.70;99.90;;;;;;5113778;28;20373;-76
2022/09/27 08:52:20;;;;;;;2.15;1.90;;;16.70;99.90;;;;;;6098117;22;1568110;-74
2022/09/27 08:54:48;;;;;;;2.28;2.08;;;17.30;99.90;;;;;;6161589;23;20055;-74
2022/09/27 08:57:14;;;;;;;2.88;2.67;;;17.30;99.90;;;;;;6163571;23;20005;-73
2022/09/27 08:59:49;;;;;;;3.90;3.42;;;17.30;99.90;;;;;;6136282;23;20088;-73
2022/09/27 09:02:23;;;;;;;3.90;3.50;;;17.20;99.90;;;;;;6162717;23;20041;-73
2022/09/27 09:04:54;;;;;;;4.63;3.00;;;17.20;99.90;;;;;;6162789;23;20004;-75
2022/09/27 09:20:41;;;;;;;3.30;3.00;;;17.10;99.90;;;;;;6086832;22;1782704;-78
2022/09/27 09:23:41;;;;;;;3.92;3.63;;;17.40;99.90;;;;;;6134004;23;20009;-80
2022/09/27 09:26:17;;;;;;;4.00;3.70;;;17.40;99.90;;;;;;6156698;23;20009;-77
2022/09/27 09:29:08;;;;;;;4.35;4.03;;;17.40;99.90;;;;;;6163091;23;20001;-79
2022/09/27 09:31:55;;;;;;;6.22;4.32;;;17.40;99.90;;;;;;6163369;23;20001;-79
2022/09/27 09:34:59;;;;;;;5.95;4.35;;;17.40;99.90;;;;;;6163237;23;20669;-80
2022/09/27 09:37:35;;;;;;;7.07;4.15;;;17.40;99.90;;;;;;6162762;23;20430;-78
2022/09/27 09:40:23;;;;;;;5.30;4.30;;;17.40;99.90;;;;;;6162192;23;20421;-79
2022/09/27 09:43:08;;;;;;;5.75;4.50;;;17.40;99.90;;;;;;6163113;23;20076;-80
2022/09/27 09:45:40;;;;;;;5.30;4.80;;;17.50;99.90;;;;;;6137274;23;20381;-81
2022/09/27 09:48:16;;;;;;;5.65;4.95;;;17.50;99.90;;;;;;6163152;23;20012;-79
2022/09/27 09:50:49;;;;;;;5.68;4.90;;;17.60;99.90;;;;;;6137409;23;20060;-80
2022/09/27 09:53:20;;;;;;;6.13;5.45;;;17.60;99.90;;;;;;6163695;23;20029;-79
2022/09/27 09:55:56;;;;;;;5.88;5.30;;;17.60;99.90;;;;;;6163454;23;20597;-78
2022/09/27 09:58:22;;;;;;;5.60;5.10;;;17.70;99.90;;;;;;6163176;23;20001;-80
2022/09/27 12:58:53;;;;;;;12.18;7.53;;;20.10;99.90;;;;;;5088960;27;20373;-81
2022/09/27 13:01:59;;;;;;;10.93;9.07;;;20.50;99.90;;;;;;5087527;28;20109;-80
2022/09/27 13:04:57;;;;;;;9.85;8.82;;;20.60;99.90;;;;;;5088766;28;20024;-81
2022/09/27 13:07:34;;;;;;;10.88;8.63;;;20.60;99.90;;;;;;5088602;28;20074;-81
2022/09/27 13:39:21;;;;;;;9.25;8.10;;;20.60;99.90;;;;;;6285741;22;20320;-76
2022/09/27 13:41:52;;;;;;;10.00;8.40;;;21.10;99.90;;;;;;6282948;22;20415;-76
2022/09/27 13:44:50;;;;;;;9.65;8.70;;;21.10;99.90;;;;;;6282967;22;20317;-76
2022/09/27 13:47:39;;;;;;;10.15;8.25;;;21.20;99.90;;;;;;6270571;22;20000;-76
2022/09/27 13:50:43;;;;;;;9.88;7.95;;;21.20;99.90;;;;;;6282876;22;20026;-76
2022/09/27 13:53:12;;;;;;;12.18;9.25;;;21.40;99.90;;;;;;6282180;22;20004;-76
2022/09/27 13:55:40;;;;;;;11.38;7.80;;;21.30;99.90;;;;;;6282964;22;20003;-76
2022/09/27 13:58:34;;;;;;;8.75;7.72;;;21.40;99.90;;;;;;6280970;22;20004;-76
2022/09/27 14:01:08;;;;;;;12.15;9.23;;;21.40;99.90;;;;;;6282992;22;19996;-76
2022/09/27 14:03:36;;;;;;;7.95;6.72;;;21.30;99.90;;;;;;6283206;22;20511;-76
2022/09/27 14:06:07;;;;;;;8.13;7.32;;;21.40;99.90;;;;;;6282971;22;20003;-76
2022/09/27 14:08:36;;;;;;;8.40;7.57;;;21.40;99.90;;;;;;6281276;22;20105;-76
2022/09/27 14:11:09;;;;;;;8.18;7.38;;;21.40;99.90;;;;;;6282809;22;20003;-76
2022/09/27 14:13:37;;;;;;;8.15;7.18;;;21.40;99.90;;;;;;6281272;22;20003;-76
2022/09/27 14:16:06;;;;;;;9.00;8.07;;;21.50;99.90;;;;;;6281317;22;20027;-76
2022/09/27 14:18:35;;;;;;;8.95;7.82;;;21.50;99.90;;;;;;6281160;22;20014;-76
2022/09/27 14:21:37;;;;;;;9.75;8.80;;;21.50;99.90;;;;;;6282976;22;19999;-76
2022/09/27 14:24:29;;;;;;;10.90;9.35;;;21.50;99.90;;;;;;6266113;22;20341;-76
2022/09/27 14:27:19;;;;;;;11.18;9.73;;;21.40;99.90;;;;;;6282786;22;20003;-76
2022/09/27 14:29:49;;;;;;;10.40;9.30;;;21.30;99.90;;;;;;6282766;22;20004;-76
2022/09/27 14:32:18;;;;;;;10.55;9.45;;;21.20;99.90;;;;;;6282810;22;20004;-76
2022/09/27 14:34:44;;;;;;;10.82;9.05;;;21.20;99.90;;;;;;6282876;22;20013;-76
2022/09/27 14:37:24;;;;;;;11.27;9.55;;;21.20;99.90;;;;;;6286350;22;19999;-76
2022/09/27 14:40:07;;;;;;;12.57;9.30;;;21.10;99.90;;;;;;6307936;22;20426;-76
2022/09/27 14:42:36;;;;;;;;;;;21.10;99.90;;;;;;6279915;22;19999;-76
2022/09/27 14:45:26;;;;;;;12.35;11.00;;;21.10;99.90;;;;;;6279410;22;19903;-76
2022/09/27 14:47:52;;;;;;;15.35;10.35;;;21.00;99.90;;;;;;6306880;22;20037;-76
2022/09/27 14:50:24;;;;;;;14.32;10.57;;;21.00;99.90;;;;;;6279358;22;20003;-76
2022/09/27 14:52:54;;;;;;;;;;;21.00;99.90;;;;;;6279835;22;20007;-76
2022/09/27 14:55:22;;;;;;;13.32;11.23;;;20.90;99.90;;;;;;6306694;22;19906;-76
2022/09/27 14:57:52;;;;;;;15.50;10.75;;;20.80;99.90;;;;;;6275562;22;20090;-77
2022/09/27 15:00:35;;;;;;;16.10;11.65;;;20.80;99.90;;;;;;6306187;22;20034;-77
2022/09/27 15:03:04;;;;;;;16.60;11.27;;;20.80;99.90;;;;;;6305550;22;19995;-77
2022/09/27 15:05:34;;;;;;;14.20;9.73;;;20.80;99.90;;;;;;6279085;22;20006;-77
2022/09/27 15:08:05;;;;;;;13.95;11.05;;;20.80;99.90;;;;;;6305973;22;20010;-77
2022/09/27 15:10:34;;;;;;;14.82;11.30;;;20.70;99.90;;;;;;6301622;22;20036;-77
2022/09/27 15:13:03;;;;;;;13.07;11.52;;;20.70;99.90;;;;;;6273529;22;20007;-78
2022/09/27 15:15:37;;;;;;;11.68;10.50;;;20.70;99.90;;;;;;6273845;22;20533;-77
2022/09/27 15:18:23;;;;;;;11.98;10.55;;;20.60;99.90;;;;;;6273083;22;20311;-77
2022/09/27 15:20:53;;;;;;;12.63;11.20;;;20.60;99.90;;;;;;6301388;22;19999;-76
2022/09/27 15:23:42;;;;;;;13.73;10.52;;;20.60;99.90;;;;;;6300704;22;20308;-76
2022/09/27 15:26:15;;;;;;;15.55;11.35;;;20.50;99.90;;;;;;6301792;22;19995;-77
2022/09/27 15:28:44;;;;;;;14.60;11.35;;;20.50;99.90;;;;;;6301408;22;19999;-78
2022/09/27 15:31:10;;;;;;;14.15;10.30;;;20.50;99.90;;;;;;6301081;22;20154;-77
2022/09/27 15:33:36;;;;;;;16.88;10.25;;;20.40;99.90;;;;;;6273265;22;20003;-77
2022/09/27 15:36:14;;;;;;;10.15;9.15;;;20.40;99.90;;;;;;6274084;22;20071;-77
2022/09/27 15:38:46;;;;;;;12.68;11.13;;;20.40;99.90;;;;;;6300375;22;20008;-76
2022/09/27 15:41:15;;;;;;;;;;;20.30;99.90;;;;;;6305923;22;20000;-76
2022/09/27 15:43:49;;;;;;;13.45;11.15;;;20.30;99.90;;;;;;6305913;22;20233;-76
2022/09/27 15:46:20;;;;;;;14.68;12.95;;;20.30;99.90;;;;;;6305845;22;20003;-76
2022/09/27 15:49:24;;;;;;;15.45;12.60;;;20.30;99.90;;;;;;6305717;22;20421;-76
2022/09/27 15:51:52;;;;;;;14.63;11.40;;;20.20;99.90;;;;;;6277613;22;20003;-77
2022/09/27 15:54:22;;;;;;;14.55;12.15;;;20.30;99.90;;;;;;6305838;22;20338;-75
2022/09/27 15:56:50;;;;;;;18.02;12.90;;;20.30;99.90;;;;;;6305799;22;20034;-76
2022/09/27 15:59:26;;;;;;;13.52;11.45;;;20.30;99.90;;;;;;6278421;22;20289;-76
2022/09/27 16:02:02;;;;;;;14.57;11.93;;;20.30;99.90;;;;;;6302647;22;20030;-76
2022/09/27 16:04:30;;;;;;;20.05;12.75;;;20.20;99.90;;;;;;6305672;22;19995;-76
2022/09/27 16:06:59;;;;;;;13.77;12.00;;;20.20;99.90;;;;;;6304205;22;20439;-76
2022/09/27 16:09:25;;;;;;;13.40;12.00;;;20.10;99.90;;;;;;6276523;22;20000;-76
2022/09/27 16:11:51;;;;;;;10.48;9.38;;;20.00;99.90;;;;;;6304558;22;20003;-77
2022/09/27 16:14:18;;;;;;;10.10;8.88;;;20.00;99.90;;;;;;6305654;22;20129;-76
2022/09/27 16:16:49;;;;;;;10.05;8.70;;;20.00;99.90;;;;;;6305860;22;20022;-76
2022/09/27 16:19:15;;;;;;;8.63;7.72;;;19.90;99.90;;;;;;6304744;22;20323;-76
2022/09/27 16:21:44;;;;;;;8.43;7.57;;;19.90;99.90;;;;;;6305409;22;20079;-76
2022/09/27 16:24:10;;;;;;;8.63;7.57;;;19.80;99.90;;;;;;6305542;22;20023;-77
2022/09/27 16:26:37;;;;;;;8.32;7.53;;;19.80;99.90;;;;;;6305540;22;20075;-76
2022/09/27 16:29:03;;;;;;;9.25;8.35;;;19.70;99.90;;;;;;6305338;22;19995;-76
2022/09/27 16:31:29;;;;;;;11.02;8.70;;;19.60;99.90;;;;;;6304304;22;20023;-76
2022/09/27 16:33:55;;;;;;;11.05;8.73;;;19.50;99.90;;;;;;6305197;22;19995;-76
2022/09/27 16:36:20;;;;;;;10.43;8.25;;;19.50;99.90;;;;;;6305575;22;20486;-76
2022/09/27 16:38:50;;;;;;;10.93;9.20;;;19.40;99.90;;;;;;6277188;22;20021;-75
2022/09/27 16:41:16;;;;;;;12.60;9.77;;;19.30;99.90;;;;;;6305166;22;20022;-76
2022/09/27 16:43:43;;;;;;;10.80;9.70;;;19.20;99.90;;;;;;6305179;22;20308;-76
2022/09/27 16:46:11;;;;;;;10.73;9.63;;;19.10;99.90;;;;;;6277831;22;20010;-76
2022/09/27 16:48:37;;;;;;;10.82;9.73;;;19.00;99.90;;;;;;6277534;22;20082;-76
2022/09/27 16:53:56;;;;;;;10.52;9.52;;;18.90;99.90;;;;;;6305208;22;20015;-76
2022/09/27 16:56:22;;;;;;;12.00;9.05;;;18.80;99.90;;;;;;6277651;22;20350;-76
2022/09/27 16:58:51;;;;;;;10.52;9.45;;;18.80;99.90;;;;;;6304707;22;20422;-76
2022/09/27 17:01:16;;;;;;;9.75;8.75;;;18.80;99.90;;;;;;6304996;22;20074;-76
2022/09/27 17:03:52;;;;;;;12.65;9.38;;;18.70;99.90;;;;;;6300808;22;20429;-76
2022/09/27 17:06:18;;;;;;;12.77;9.70;;;18.70;99.90;;;;;;6272801;22;19999;-77